Islamabad Weather



Islamabad's Current Weather

Temprature 21o few clouds

few clouds

Rain: 0 %

Min Temprature21o
Max Temprature21o
Humidity37
Wind Speed5.1 m/h
Sun Rise06:43:33
Sun Set17:59:07
Current Time: 23-Feb-2019 16:08:28
Lat/Lon: 33.69, 73.06




Islamabad's Geo Location




Islamabad's Weather Forecast

Time Overall Temp Min Temp Max Temp Humidity Wind Speed Rain
23-Feb-2019 (Sat)
17:00:00 few clouds 18.930 15.199 18.930 71 1.36 m/h 0 %
20:00:00 scattered clouds 10.930 8.134 10.930 86 1.22 m/h 0 %
23:00:00 few clouds 7.330 5.465 7.330 83 1.22 m/h 0 %
24-Feb-2019 (Sun)
02:00:00 clear sky 5.620 4.685 5.620 79 2.21 m/h 0 %
05:00:00 clear sky 3.792 3.792 3.792 78 1.86 m/h 0 %
08:00:00 clear sky 6.078 6.078 6.078 75 2.21 m/h 0 %
11:00:00 clear sky 15.074 15.074 15.074 80 1.56 m/h 0 %
14:00:00 clear sky 16.906 16.906 16.906 72 1.67 m/h 0 %
17:00:00 clear sky 15.446 15.446 15.446 69 1.15 m/h 0 %
20:00:00 few clouds 8.168 8.168 8.168 77 0.96 m/h 0 %
23:00:00 few clouds 5.511 5.511 5.511 81 1.61 m/h 0 %
25-Feb-2019 (Mon)
02:00:00 scattered clouds 4.730 4.730 4.730 80 1.77 m/h 0 %
05:00:00 broken clouds 4.352 4.352 4.352 75 1.46 m/h 0 %
08:00:00 broken clouds 6.145 6.145 6.145 79 1.42 m/h 0 %
11:00:00 light rain 10.847 10.847 10.847 94 1.81 m/h 37 %
14:00:00 light rain 10.873 10.873 10.873 99 1.67 m/h 55 %
17:00:00 light rain 9.787 9.787 9.787 100 1.81 m/h 188 %
20:00:00 moderate rain 7.973 7.973 7.973 95 1.21 m/h 311 %
23:00:00 moderate rain 7.392 7.392 7.392 96 2.01 m/h 306 %
26-Feb-2019 (Tue)
02:00:00 light rain 7.326 7.326 7.326 99 1.31 m/h 170 %
05:00:00 light rain 7.172 7.172 7.172 99 1.11 m/h 53 %
08:00:00 light rain 7.432 7.432 7.432 95 1.57 m/h 9 %
11:00:00 light rain 11.617 11.617 11.617 94 1.62 m/h 3 %
14:00:00 light rain 12.046 12.046 12.046 92 1.06 m/h 3 %
17:00:00 light rain 11.439 11.439 11.439 91 0.81 m/h 3 %
20:00:00 broken clouds 7.061 7.061 7.061 96 1.62 m/h 0 %
23:00:00 light rain 5.348 5.348 5.348 100 1.32 m/h 26 %
27-Feb-2019 (Wed)
02:00:00 scattered clouds 3.806 3.806 3.806 91 1.06 m/h 0 %
05:00:00 few clouds 2.144 2.144 2.144 92 1.05 m/h 0 %
08:00:00 few clouds 4.165 4.165 4.165 91 1.17 m/h 0 %
11:00:00 few clouds 11.270 11.270 11.270 100 1.86 m/h 0 %
14:00:00 light rain 10.511 10.511 10.511 100 1.95 m/h 138 %
17:00:00 light rain 10.348 10.348 10.348 89 2.76 m/h 32 %
20:00:00 light rain 5.892 5.892 5.892 97 1.42 m/h 1 %
23:00:00 few clouds 2.816 2.816 2.816 89 1.32 m/h 0 %
28-Feb-2019 (Thu)
02:00:00 scattered clouds 2.241 2.241 2.241 86 1.76 m/h 0 %
05:00:00 scattered clouds 1.463 1.463 1.463 82 1.41 m/h 0 %
08:00:00 broken clouds 4.040 4.040 4.040 85 1.71 m/h 0 %
11:00:00 overcast clouds 8.647 8.647 8.647 86 1.66 m/h 0 %
14:00:00 overcast clouds 13.029 13.029 13.029 84 1.62 m/h 0 %


Islamabad's Tourist Spots

Museums in Islamabad

Historical Places in Islamabad

Famous Cities (60)